Hlavní strana
METAR-TAF:

METAR-TAF

Letiště :

Paris, Tennessee, Spojené státy americké

zeměpisná šířka: 36-20-18N, zeměpisná délka: 088-22-58W, výška: 177 m

Aktuální stav počasí

Zpráva byla vytvořena před 17 minutami, v 07:55 UTC
vítr z různých směrů 6 kt
Teplota 14°C
Vlhkost vzduchu 94%
Tlak 1009 hPa
Viditelnost: 16.1 km
Oblačno až skoro zataženo ve výšce 1300 ft
Oblačno až skoro zataženo ve výšce 1800 ft
Oblačno až skoro zataženo ve výšce 3900 ft

METAR: KPHT 260755Z AUTO VRB06KT 10SM BKN013 BKN018 BKN039 14/13 A2979 RMK A01

Čas: 03:12 (08:12 UTC)


TAF: chybějící

Stav a předpovědi počasí z více než 4 000 letišť (zprávy METAR a TAF).

Červené a žluté tečky na mapě představují dostupné meteorologické stanice.

Když kurzor umístíte na tečku, zobrazí se název stanice.

Pak kliknutím zobrazíte stav a předpověď počasí.

Chcete-li změnit mapu, kliknutím na zelené tlačítko se znaménkem +mapu přiblížíte, kliknutím na zelené tlačítko se znaménkem – mapu oddálíte a kliknutím na zelené šipky přejdete na sousední mapy.


METAR-TAF: